• Join FlightAware (Why Join?)
  • Login
  • US Flag 
12:18AM EST


 

Airport Tracker/Info


-or-


 

Live Flight TrackerFlight Track Log ✈ UAL5942 ✈ 25-Apr-2013 ✈ KRDU - KIAD

Flight Track Log - Related Links

Times and Time Zones

All times are in EDT time to prevent confusion due to time zone crossing. See the UAL5942 flight status page for this flight to view local times or setup timezone preferences in your user account.

Time Position Orientation Groundspeed Altitude Reporting Facility
EDT Latitude Longitude Course Direction KTS MPH feet Rate Location/Type
08:02PM 35.8947 -78.7764 15° North 169 194 1,300  Level Washington Center
08:03PM 35.9475 -78.7478 24° Northeast 208 239 4,200 2,700 Climbing Washington Center
08:03PM 35.9686 -78.7436 North 215 247 5,100 2,820 Climbing Washington Center
08:04PM 36.0086 -78.7297 16° North 232 267 7,100 2,880 Climbing Washington Center
08:04PM 36.0294 -78.7256 North 224 258 8,000 2,640 Climbing Washington Center
08:05PM 36.1765 -78.6649 19° North  Level FlightAware Approximate
08:05PM 36.0969 -78.7025 15° North 234 269 10,700  Level Washington Center
08:06PM 36.2538 -78.6321 15° North  Level FlightAware Approximate
08:06PM 36.1706 -78.6744 17° North 260 299 11,600  Level Washington Center
08:07PM 36.3327 -78.6058 15° North  Level FlightAware Approximate
08:07PM 36.2569 -78.6444 16° North 323 372 12,500  Level Washington Center
08:08PM 36.3644 -78.5969 20° North 362 417 14,300 1,680 Climbing Washington Center
08:09PM 36.4514 -78.5436 26° Northeast 373 429 15,900 1,440 Climbing Washington Center
08:10PM 36.5489 -78.4800 28° Northeast 384 442 17,200 900 Climbing Washington Center
08:11PM 36.6506 -78.4217 25° Northeast 390 449 17,800 840 Climbing Washington Center
08:12PM 36.7522 -78.3528 28° Northeast 401 461 18,900 960 Climbing Washington Center
08:13PM 36.8622 -78.2867 26° Northeast 413 475 19,800 900 Climbing Washington Center
08:14PM 36.9725 -78.2125 28° Northeast 426 490 20,800 900 Climbing Washington Center
08:15PM 37.0908 -78.1408 26° Northeast 431 496 21,600 600 Climbing Washington Center
08:16PM 37.1922 -78.0792 26° Northeast 431 496 22,000 180 Climbing Washington Center
08:17PM 37.3022 -78.0094 27° Northeast 431 496 22,000  Level Washington Center
08:18PM 37.4161 -77.9347 28° Northeast 436 502 22,000  Level Washington Center
08:19PM 37.5281 -77.8650 26° Northeast 436 502 22,000 -600 Level Washington Center
08:20PM 37.6378 -77.7947 27° Northeast 441 507 20,800 -2,040 Descending Washington Center
08:21PM 37.7456 -77.7242 27° Northeast 441 507 18,000 -2,520 Descending Washington Center
08:22PM 37.8508 -77.6589 26° Northeast 422 486 15,800 -2,400 Descending Washington Center
08:23PM 37.9500 -77.5931 28° Northeast 412 474 13,300 -2,460 Descending Washington Center
08:24PM 38.0447 -77.5375 25° Northeast 390 449 10,900 -1,680 Descending Washington Center
08:25PM 38.1292 -77.4817 27° Northeast 361 415 10,000 -480 Descending Washington Center
08:26PM 38.2008 -77.4361 27° Northeast 323 372 10,000 -840 Level Washington Center
08:27PM 38.2722 -77.4008 21° North 288 331 8,400 -1,800 Descending Washington Center
08:28PM 38.3450 -77.4050 357° North 253 291 6,500 -1,920 Descending Washington Center
08:29PM 38.4181 -77.4122 356° North 253 291 4,600 -1,200 Descending Washington Center
08:30PM 38.4867 -77.4167 357° North 248 285 4,100 -300 Descending Washington Center
08:31PM 38.5556 -77.4156 North 248 285 4,100 -300 Level Washington Center
08:32PM 38.6303 -77.4306 351° North 258 297 3,500 -780 Descending Washington Center
08:32PM 38.6667 -77.4333 357° North 262 302 3,100 -420 Descending Potomac TRACON
08:33PM 38.7333 -77.4333 360° North 250 288 3,000 -120 Descending Potomac TRACON